CDT,Max TemperatureF,Mean TemperatureF,Min TemperatureF,Max Dew PointF,MeanDew PointF,Min DewpointF,Max Humidity, Mean Humidity, Min Humidity, Max Sea Level PressureIn, Mean Sea Level PressureIn, Min Sea Level PressureIn, Max VisibilityMiles, Mean VisibilityMiles, Min VisibilityMiles, Max Wind SpeedMPH, Mean Wind SpeedMPH, Max Gust SpeedMPH,PrecipitationIn, CloudCover, Events, WindDirDegrees
2011-10-1,73,56,39,46,41,36,100,64,25,30.28,30.22,30.15,10,10,10,5,0,,0.00,0,,51
2011-10-2,75,56,37,46,39,36,100,63,25,30.33,30.27,30.19,10,10,10,0,0,,0.00,0,,-1
2011-10-3,80,58,37,50,42,36,100,66,21,30.32,30.25,30.18,10,10,10,0,0,,0.00,0,,-1
2011-10-4,80,60,41,52,43,37,100,65,21,30.32,30.25,30.19,10,10,5,6,0,,0.00,0,,129
2011-10-5,80,61,42,55,46,41,100,68,26,30.27,30.20,30.13,10,10,8,6,0,,0.00,0,,110
2011-10-6,82,64,46,55,50,46,100,68,30,30.20,30.15,30.10,10,10,7,12,2,18,0.00,0,,140
2011-10-7,84,68,51,57,54,50,100,62,30,30.26,30.20,30.15,10,10,5,13,3,20,0.00,0,,133
2011-10-8,82,66,51,61,55,52,100,71,39,30.26,30.20,30.14,10,9,1,10,2,16,0.00,0,,128
2011-10-9,80,66,53,59,55,52,100,71,39,30.23,30.17,30.09,10,9,2,12,2,18,0.00,1,,104
2011-10-10,78,66,53,61,57,52,100,77,47,30.13,30.07,29.99,10,10,7,7,1,,0.00,1,,133
2011-10-11,82,68,53,63,58,54,100,76,45,30.01,29.95,29.85,10,9,2,7,1,,0.00,1,,130
2011-10-12,66,63,60,64,62,61,100,97,88,29.89,29.82,29.72,10,6,0,5,0,,0.52,6,Fog-Rain-Thunderstorm,127
2011-10-13,78,66,53,57,51,39,100,69,26,29.86,29.79,29.72,10,9,1,18,3,28,0.00,0,,308
2011-10-14,82,62,42,55,45,36,100,68,20,30.00,29.94,29.90,10,10,10,14,1,,0.00,0,,255
2011-10-15,77,60,44,52,44,36,100,64,24,30.18,30.10,30.04,10,10,8,5,0,,0.00,0,,125
2011-10-16,87,66,44,57,49,43,100,67,24,30.08,30.00,29.89,10,10,8,12,1,21,0.00,0,,231
2011-10-17,82,66,50,61,54,48,100,74,37,29.97,29.86,29.73,10,8,5,8,0,,0.00,0,Thunderstorm,137
2011-10-18,64,54,42,61,44,37,94,77,51,29.92,29.86,29.71,10,8,2,16,5,28,0.31,7,Rain-Thunderstorm,337
2011-10-19,51,45,37,37,34,32,87,62,47,29.99,29.92,29.87,10,10,10,17,5,26,0.00,4,,309
2011-10-20,62,47,32,36,31,21,100,70,20,30.15,30.04,29.98,10,9,5,10,2,18,0.00,0,Thunderstorm,303
2011-10-21,69,50,32,45,35,30,100,70,28,30.27,30.19,30.14,10,10,9,4,0,,0.00,0,,183
2011-10-22,75,55,35,55,42,36,100,73,36,30.19,30.13,30.04,10,9,6,5,0,,0.00,0,,150
2011-10-23,68,60,51,57,55,52,100,87,64,30.12,30.05,29.99,10,8,2,8,1,,0.20,5,Rain-Thunderstorm,127
2011-10-24,78,64,50,61,54,50,100,85,47,30.24,30.18,30.14,10,4,0,7,1,,0.00,5,Fog,169
2011-10-25,80,64,48,61,53,48,100,79,47,30.19,30.11,29.95,10,5,0,13,2,23,0.00,4,Fog,176
2011-10-26,75,63,51,64,59,52,100,85,65,29.97,29.92,29.85,10,7,1,12,1,21,0.23,3,Rain,199
2011-10-27,55,52,48,52,47,43,94,89,71,30.13,30.04,29.93,10,7,2,7,2,,0.86,8,Rain-Thunderstorm,5
2011-10-28,59,49,39,46,40,34,100,74,39,30.23,30.18,30.11,10,9,4,12,2,16,0.05,4,Rain,352
2011-10-29,64,48,32,43,35,32,100,71,30,30.29,30.20,30.13,10,8,0,9,1,,0.00,1,Fog,206
2011-10-30,66,49,32,45,37,32,100,75,30,30.24,30.16,30.08,10,9,5,14,1,18,0.00,0,,206
2011-10-31,69,50,32,43,35,27,100,68,23,30.24,30.18,30.14,10,6,0,10,1,,0.00,0,Fog,205